CZUM/ZUM METAR and TAF weather

Enter ICAO airport designator
Station Type Date Time Source
CZUM METAR 2021/09/16 21:00 UTC NOAA

CZUM 162100Z AUTO 27011G20KT 250V310 9SM BKN060 12/04 A3003 RMK SLP186


Station Type Date Time Source
CZUM Decoded METAR 2021/09/16 21:00 UTC NOAA

Churchill Falls, Nfld., Canada (CZUM) 53-33N 064-06W 440M
Sep 16, 2021 - 05:00 PM EDT / 2021.09.16 2100 UTC
Wind: from the W (270 degrees) at 13 MPH (11 KT) gusting to 23 MPH (20 KT) (direction variable):0
Visibility: 9 mile(s):0
Sky conditions: mostly cloudy
Temperature: 53 F (12 C)
Dew Point: 39 F (4 C)
Relative Humidity: 57%
Pressure (altimeter): 30.03 in. Hg (1016 hPa)
ob: CZUM 162100Z AUTO 27011G20KT 250V310 9SM BKN060 12/04 A3003 RMK SLP186
cycle: 21

Station Type Date Time Source
CZUM TAF 2021/09/16 20:39 UTC NOAA

TAF CZUM 161938Z 1620/1708 28015G25KT P6SM BKN050
BECMG 1622/1624 30010KT
BECMG 1700/1702 VRB03KT
RMK FCST BASED ON AUTO OBS. NXT FCST BY 170200Z

Example: see airport list